Terminal Aerodrome Forecast
Issued by NWS

Home | Current Version | Previous Version | Text Only | Print | Product List | Glossary Off
Versions: 1 2 3 4 5 6 7 8 9 10 11 12 13

000
FTUS43 KBIS 030127 AAA
TAFMOT
TAF AMD
KMOT 030127Z 0301/0324 30016KT P6SM BKN130
     FM030300 31009KT P6SM SCT110
     FM030600 29011KT P6SM SCT110
     FM031500 30015G21KT P6SM SKC=

USA.gov is the U.S. government's official web portal to all federal, state and local government web resources and services.